Time;durP1;ratioP1;P1;durP2;ratioP2;P2;SDS_P1;SDS_P2;PMS_P1;PMS_P2;Temp;Humidity;BMP_temperature;BMP_pressure;BME280_temperature;BME280_humidity;BME280_pressure;Samples;Min_cycle;Max_cycle;Signal;HPM_P1;HPM_P2
2022/11/04 00:01:52;;;;;;;12.98;3.88;;;;;;;1.98;63.44;99570.59;4798341;28;20085;-67
2022/11/04 00:04:46;;;;;;;9.35;3.78;;;;;;;2.01;64.11;99562.88;4841051;28;20097;-66
2022/11/04 00:12:23;;;;;;;8.82;3.38;;;;;;;2.14;62.92;99567.25;4809802;28;22509;-65
2022/11/04 00:13:23;;;;;;;6.10;3.33;;;;;;;2.19;62.50;99563.84;4853599;28;20061;-66
2022/11/04 00:34:19;;;;;;;7.40;3.65;;;;;;;2.29;63.09;99565.63;4821818;28;20051;-63
2022/11/04 00:37:09;;;;;;;8.88;3.70;;;;;;;2.29;62.43;99560.47;4931248;28;20115;-65
2022/11/04 00:39:59;;;;;;;16.48;3.70;;;;;;;2.27;62.10;99562.19;4903989;28;20040;-64
2022/11/04 00:42:38;;;;;;;11.45;5.13;;;;;;;2.32;62.38;99565.66;4905064;28;20052;-64
2022/11/04 00:45:31;;;;;;;10.45;3.95;;;;;;;2.26;62.04;99560.47;4796789;28;20051;-65
2022/11/04 00:48:15;;;;;;;11.07;3.33;;;;;;;2.21;62.27;99567.31;4885584;28;20087;-64
2022/11/04 00:51:08;;;;;;;13.85;5.32;;;;;;;2.11;63.10;99561.22;4933559;28;20078;-64
2022/11/04 00:54:23;;;;;;;14.45;5.60;;;;;;;2.15;63.86;99558.69;4865831;28;20045;-64
2022/11/04 00:57:10;;;;;;;14.63;5.40;;;;;;;2.34;64.46;99558.78;4851082;28;21590;-64
2022/11/04 00:59:55;;;;;;;11.40;4.20;;;;;;;2.54;64.58;99557.16;4877478;28;20080;-65
2022/11/04 01:02:42;;;;;;;12.52;4.65;;;;;;;2.69;64.36;99560.69;4797677;28;20055;-64
2022/11/04 01:05:28;;;;;;;6.68;3.28;;;;;;;2.71;64.16;99559.81;4794440;28;20059;-63
2022/11/04 01:08:15;;;;;;;6.85;3.50;;;;;;;2.77;64.51;99553.81;4798044;28;20054;-64
2022/11/04 01:10:51;;;;;;;12.07;4.22;;;;;;;2.84;64.45;99550.41;4812021;28;20097;-64
2022/11/04 01:13:47;;;;;;;9.43;3.88;;;;;;;2.77;64.73;99538.34;4820336;28;20046;-65
2022/11/04 01:16:30;;;;;;;8.57;3.20;;;;;;;2.09;64.21;99434.94;4841682;28;20081;-64
2022/11/04 01:22:16;;;;;;;8.05;3.10;;;;;;;3.23;64.30;99543.66;4823766;28;20407;-64
2022/11/04 01:25:18;;;;;;;5.28;2.42;;;;;;;3.57;64.18;99538.50;4846541;28;20400;-64
2022/11/04 01:27:56;;;;;;;;;;;;;;;3.72;63.80;99542.81;4867230;28;20101;-64
2022/11/04 01:30:41;;;;;;;4.80;2.55;;;;;;;3.82;63.46;99535.06;4916801;28;19920;-64
2022/11/04 01:33:16;;;;;;;7.05;1.90;;;;;;;3.88;63.16;99540.22;4898083;28;20045;-64
2022/11/04 01:36:13;;;;;;;3.53;2.15;;;;;;;4.00;63.07;99538.50;4899733;28;20075;-64
2022/11/04 01:38:51;;;;;;;5.20;2.65;;;;;;;4.07;62.45;99529.88;4891459;28;20060;-64
2022/11/04 01:41:26;;;;;;;5.28;2.10;;;;;;;4.22;62.02;99513.44;4913447;28;20040;-65
2022/11/04 01:44:51;;;;;;;8.23;2.45;;;;;;;4.31;62.22;99521.19;4873357;28;20238;-63
2022/11/04 01:47:46;;;;;;;3.30;2.00;;;;;;;4.35;61.48;99514.28;4874819;28;20482;-63
2022/11/04 01:50:50;;;;;;;6.43;2.53;;;;;;;4.26;61.11;99521.19;4885832;28;20401;-65
2022/11/04 01:53:44;;;;;;;8.13;3.50;;;;;;;4.25;62.05;99498.78;4893932;28;20075;-66
2022/11/04 01:56:54;;;;;;;5.18;1.85;;;;;;;4.35;62.17;99515.16;4901485;28;20061;-65
2022/11/04 01:59:36;;;;;;;4.18;2.25;;;;;;;4.47;61.71;99515.09;4916203;28;20239;-65
2022/11/04 02:02:15;;;;;;;7.25;2.20;;;;;;;4.56;61.41;99509.03;4875255;28;20109;-65
2022/11/04 02:05:17;;;;;;;3.58;2.20;;;;;;;4.60;60.62;99497.81;4926526;28;20080;-65
2022/11/04 02:08:00;;;;;;;5.32;2.38;;;;;;;4.58;61.21;99496.94;4885301;28;20045;-65
2022/11/04 02:10:52;;;;;;;5.68;2.00;;;;;;;4.51;60.03;99500.41;4871138;28;20045;-64
2022/11/04 02:13:37;;;;;;;3.60;2.25;;;;;;;4.25;58.83;99495.34;4889123;28;20049;-65
2022/11/04 02:16:26;;;;;;;6.50;2.25;;;;;;;4.21;60.22;99484.13;4923277;28;20045;-65
2022/11/04 02:19:22;;;;;;;4.60;2.30;;;;;;;4.25;59.04;99488.44;4885396;28;20107;-65
2022/11/04 02:22:39;;;;;;;7.10;2.33;;;;;;;4.21;60.65;99497.06;4883078;28;20054;-65
2022/11/04 02:25:48;;;;;;;9.35;2.30;;;;;;;4.07;59.77;99483.34;4868501;28;20041;-65
2022/11/04 02:29:01;;;;;;;4.75;2.10;;;;;;;3.85;58.95;99493.72;4879169;28;20046;-67
2022/11/04 02:32:14;;;;;;;6.40;1.85;;;;;;;4.10;61.21;99483.31;4854653;28;20057;-64
2022/11/04 02:38:01;;;;;;;3.50;2.10;;;;;;;4.29;60.08;99490.16;4884690;28;20057;-66
2022/11/04 02:40:59;;;;;;;5.60;2.40;;;;;;;4.35;60.94;99484.09;4887061;28;20072;-65
2022/11/04 02:43:46;;;;;;;6.40;2.40;;;;;;;4.47;60.48;99488.38;4900820;28;20045;-65
2022/11/04 02:46:37;;;;;;;6.85;2.40;;;;;;;4.29;58.66;99477.25;4833826;28;20053;-65
2022/11/04 02:58:51;;;;;;;7.57;2.50;;;;;;;4.24;58.61;99466.06;4910561;28;20222;-64
2022/11/04 03:01:34;;;;;;;5.70;2.17;;;;;;;4.30;59.07;99466.00;4884909;28;20924;-65
2022/11/04 03:04:28;;;;;;;3.75;2.17;;;;;;;4.52;59.71;99471.97;4859781;28;20049;-64
2022/11/04 03:07:20;;;;;;;5.63;2.10;;;;;;;4.68;58.55;99472.75;4940856;28;20040;-64
2022/11/04 03:10:17;;;;;;;3.00;1.98;;;;;;;4.65;57.43;99469.31;4873788;28;20052;-65
2022/11/04 03:13:17;;;;;;;5.95;2.00;;;;;;;4.47;58.21;99467.69;4893486;28;20049;-65
2022/11/04 03:16:10;;;;;;;6.38;2.50;;;;;;;4.36;58.97;99469.44;4926035;28;20041;-64
2022/11/04 03:19:15;;;;;;;5.37;2.10;;;;;;;4.15;58.72;99466.06;4894930;28;20519;-65
2022/11/04 03:21:56;;;;;;;;;;;;;;;3.96;58.94;99464.41;4897302;28;20328;-64
2022/11/04 03:24:36;;;;;;;4.85;2.40;;;;;;;3.75;59.75;99444.66;4882581;28;19927;-63
2022/11/04 03:27:27;;;;;;;5.57;2.55;;;;;;;3.59;60.06;99448.94;4887655;28;20088;-64
2022/11/04 03:30:16;;;;;;;5.82;2.65;;;;;;;3.48;60.63;99461.03;4894393;28;20040;-65
2022/11/04 03:33:01;;;;;;;8.10;3.30;;;;;;;3.29;60.48;99435.19;4881043;28;20052;-65
2022/11/04 03:35:50;;;;;;;5.32;2.70;;;;;;;3.51;60.44;99453.28;4897137;28;20153;-65
2022/11/04 03:41:40;;;;;;;6.82;2.42;;;;;;;3.96;60.81;99454.06;4910413;28;20068;-64
2022/11/04 03:44:22;;;;;;;6.05;2.15;;;;;;;4.03;59.78;99450.59;4925055;28;20368;-65
2022/11/04 03:47:04;;;;;;;5.65;2.50;;;;;;;4.03;59.52;99445.44;4901410;28;20067;-65
2022/11/04 03:49:51;;;;;;;;;;;;;;;4.16;59.00;99451.41;4878214;28;20061;-64
2022/11/04 03:52:42;;;;;;;4.60;2.40;;;;;;;3.85;59.04;99390.34;4872718;28;19961;-64
2022/11/04 03:55:29;;;;;;;6.63;4.18;;;;;;;4.27;59.42;99437.59;4894419;28;20057;-65
2022/11/04 03:58:32;;;;;;;3.78;2.45;;;;;;;4.38;58.61;99447.03;4875845;28;20300;-64
2022/11/04 04:01:28;;;;;;;7.07;2.30;;;;;;;4.58;58.99;99444.34;4915350;28;20051;-65
2022/11/04 04:04:36;;;;;;;6.60;2.90;;;;;;;4.57;58.32;99427.06;4920634;28;20055;-65
2022/11/04 04:07:31;;;;;;;5.90;2.50;;;;;;;4.52;59.22;99429.72;4892620;28;20044;-66
2022/11/04 04:10:43;;;;;;;;;;;;;;;4.61;58.90;99433.97;4826242;28;20349;-64
2022/11/04 04:13:56;;;;;;;5.50;2.63;;;;;;;4.65;58.52;99431.34;4856623;28;19925;-66
2022/11/04 04:17:16;;;;;;;7.68;2.97;;;;;;;4.63;57.98;99435.69;4873032;28;20046;-67
2022/11/04 04:20:06;;;;;;;15.63;9.85;;;;;;;4.52;57.77;99424.53;4855375;28;20044;-66
2022/11/04 04:22:56;;;;;;;8.60;4.10;;;;;;;4.51;58.72;99431.41;4897190;28;20618;-64
2022/11/04 04:28:52;;;;;;;8.43;3.20;;;;;;;4.30;58.62;99419.47;4902222;28;20034;-64
2022/11/04 04:31:56;;;;;;;6.80;2.75;;;;;;;4.26;58.04;99428.09;4918822;28;20076;-66
2022/11/04 04:34:43;;;;;;;5.53;3.03;;;;;;;4.22;58.99;99426.41;4903643;28;20098;-65
2022/11/04 04:37:28;;;;;;;6.05;2.72;;;;;;;4.24;57.82;99424.69;4871331;28;20076;-64
2022/11/04 04:46:01;;;;;;;5.93;2.45;;;;;;;4.81;56.36;99433.84;4899320;28;20063;-65
2022/11/04 04:48:57;;;;;;;9.13;3.60;;;;;;;5.05;56.25;99432.84;4893280;28;20136;-65
2022/11/04 04:51:51;;;;;;;4.25;2.78;;;;;;;5.06;55.10;99443.16;4901969;28;20040;-64
2022/11/04 04:54:37;;;;;;;4.93;2.72;;;;;;;4.83;54.67;99455.41;4921013;28;20045;-64
2022/11/04 04:57:17;;;;;;;7.28;3.08;;;;;;;4.63;54.63;99453.78;4917540;28;20056;-64
2022/11/04 05:00:19;;;;;;;5.35;2.45;;;;;;;4.38;54.36;99447.03;4907108;28;20046;-64
2022/11/04 05:03:14;;;;;;;5.88;3.13;;;;;;;4.18;55.03;99450.53;4896143;28;20052;-66
2022/11/04 05:06:01;;;;;;;9.68;3.30;;;;;;;4.02;54.91;99436.81;4892536;28;20053;-65
2022/11/04 05:08:40;;;;;;;12.93;4.95;;;;;;;4.04;55.33;99457.47;4905950;28;20044;-66
2022/11/04 05:11:14;;;;;;;6.45;3.15;;;;;;;3.95;54.72;99452.34;4858540;28;20060;-66
2022/11/04 05:17:00;;;;;;;5.10;2.90;;;;;;;3.84;55.27;99450.66;4891694;28;20118;-65
2022/11/04 05:23:11;;;;;;;4.25;2.85;;;;;;;3.75;53.48;99450.66;4864438;28;20068;-66
2022/11/04 05:25:51;;;;;;;5.53;3.10;;;;;;;3.66;54.12;99461.00;4891227;28;20049;-65
2022/11/04 05:28:30;;;;;;;5.15;3.08;;;;;;;3.59;54.47;99474.78;4903230;28;20101;-66
2022/11/04 05:31:09;;;;;;;8.63;2.83;;;;;;;3.59;54.55;99477.38;4882537;28;20050;-65
2022/11/04 05:33:57;;;;;;;4.43;2.60;;;;;;;3.50;53.75;99485.16;4886006;28;20068;-65
2022/11/04 05:39:38;;;;;;;10.65;5.03;;;;;;;3.33;54.53;99491.16;4877615;28;20044;-65
2022/11/04 05:42:20;;;;;;;4.75;2.42;;;;;;;3.26;54.34;99486.84;4887179;28;20138;-65
2022/11/04 05:45:05;;;;;;;5.45;2.30;;;;;;;3.28;53.45;99490.28;4918824;28;20115;-66
2022/11/04 05:48:03;;;;;;;5.32;2.05;;;;;;;3.32;54.35;99492.03;4915212;28;20079;-65
2022/11/04 05:50:38;;;;;;;5.13;2.67;;;;;;;3.30;54.74;99488.56;4890448;28;20127;-65
2022/11/04 05:53:15;;;;;;;6.88;3.33;;;;;;;3.37;55.39;99490.31;4875103;28;20049;-65
2022/11/04 05:55:52;;;;;;;5.20;4.30;;;;;;;3.32;55.22;99494.59;4884650;28;20072;-65
2022/11/04 05:58:44;;;;;;;5.53;2.08;;;;;;;3.22;55.55;99500.59;4861547;28;20157;-65
2022/11/04 06:01:43;;;;;;;5.72;2.03;;;;;;;3.11;55.67;99492.00;4884349;28;20427;-66
2022/11/04 06:04:28;;;;;;;6.80;2.78;;;;;;;3.17;56.61;99503.19;4892662;28;20079;-65
2022/11/04 06:07:10;;;;;;;7.72;3.15;;;;;;;3.16;56.83;99505.75;4882794;28;20034;-65
2022/11/04 06:10:10;;;;;;;5.50;2.50;;;;;;;3.05;55.52;99512.66;4883097;28;20091;-66
2022/11/04 06:13:01;;;;;;;6.47;3.22;;;;;;;3.09;56.56;99498.88;4831942;28;20057;-66
2022/11/04 06:15:40;;;;;;;7.43;2.88;;;;;;;3.03;56.58;99508.31;4903889;28;20048;-65
2022/11/04 06:18:38;;;;;;;7.18;3.03;;;;;;;2.78;55.82;99488.50;4868924;28;20049;-65
2022/11/04 06:24:25;;;;;;;8.27;3.47;;;;;;;2.88;57.76;99500.56;4899472;28;20057;-65
2022/11/04 06:27:30;;;;;;;7.35;2.88;;;;;;;2.85;57.44;99503.13;4855252;28;20046;-65
2022/11/04 06:30:10;;;;;;;5.40;2.70;;;;;;;2.78;56.99;99498.81;4897705;28;20042;-64
2022/11/04 06:32:47;;;;;;;3.15;2.30;;;;;;;2.79;57.55;99501.38;4892860;28;20566;-65
2022/11/04 06:35:29;;;;;;;8.23;3.42;;;;;;;2.79;57.71;99503.94;4855597;28;20064;-64
2022/11/04 06:38:07;;;;;;;6.28;3.17;;;;;;;2.72;57.33;99501.34;4902104;28;20318;-65
2022/11/04 06:40:46;;;;;;;5.00;2.60;;;;;;;2.66;57.96;99503.94;4867412;28;20059;-66
2022/11/04 06:43:49;;;;;;;11.63;2.90;;;;;;;2.63;57.80;99506.50;4889788;28;20329;-65
2022/11/04 06:46:42;;;;;;;7.20;3.20;;;;;;;2.59;58.21;99519.34;4886706;28;20059;-65
2022/11/04 06:49:40;;;;;;;13.40;6.47;;;;;;;2.44;57.80;99509.00;4901702;28;20923;-65
2022/11/04 06:52:24;;;;;;;13.70;7.90;;;;;;;2.34;58.05;99517.53;4926123;28;20062;-66
2022/11/04 06:55:04;;;;;;;14.40;6.28;;;;;;;2.30;58.80;99515.81;4936966;28;20069;-65
2022/11/04 06:57:57;;;;;;;7.57;3.90;;;;;;;2.28;59.29;99512.38;4878408;28;20090;-65
2022/11/04 07:00:44;;;;;;;7.43;3.80;;;;;;;2.09;58.98;99486.47;4921598;28;20057;-65
2022/11/04 07:03:33;;;;;;;10.30;4.88;;;;;;;2.20;59.49;99524.31;4880653;28;20046;-65
2022/11/04 07:06:17;;;;;;;10.52;4.78;;;;;;;2.11;59.95;99525.16;4895735;28;20073;-65
2022/11/04 07:11:57;;;;;;;11.18;5.78;;;;;;;2.01;60.83;99544.84;4887964;28;19923;-66
2022/11/04 07:14:36;;;;;;;26.90;5.63;;;;;;;1.93;62.01;99542.22;4847212;28;20043;-66
2022/11/04 07:17:26;;;;;;;11.77;4.90;;;;;;;1.79;62.02;99537.81;4878952;28;20045;-65
2022/11/04 07:20:32;;;;;;;10.48;5.25;;;;;;;1.71;62.83;99545.50;4899313;28;20111;-65
2022/11/04 07:23:17;;;;;;;8.35;4.18;;;;;;;1.61;62.76;99529.09;4847973;28;20048;-66
2022/11/04 07:25:58;;;;;;;10.48;4.38;;;;;;;1.70;62.84;99549.78;4903395;28;20049;-65
2022/11/04 07:31:43;;;;;;;9.88;3.50;;;;;;;1.71;62.14;99546.34;4912066;28;20070;-65
2022/11/04 07:34:27;;;;;;;8.18;3.85;;;;;;;1.68;62.68;99555.78;4903908;28;20045;-64
2022/11/04 07:37:10;;;;;;;12.70;4.93;;;;;;;1.68;62.97;99551.47;4910145;28;20045;-65
2022/11/04 07:39:46;;;;;;;13.30;4.55;;;;;;;1.66;62.50;99555.75;4871028;28;20041;-65
2022/11/04 07:42:28;;;;;;;17.88;8.65;;;;;;;1.61;63.20;99560.00;4881697;28;20060;-65
2022/11/04 07:45:02;;;;;;;14.35;6.40;;;;;;;1.55;63.72;99559.06;4875313;28;20384;-65
2022/11/04 07:47:43;;;;;;;9.80;5.38;;;;;;;1.56;64.09;99556.53;4900261;28;20052;-65
2022/11/04 07:50:24;;;;;;;8.05;4.93;;;;;;;1.58;64.82;99553.97;4870611;28;20050;-66
2022/11/04 07:53:03;;;;;;;7.35;4.15;;;;;;;1.50;64.19;99535.88;4875816;28;20053;-66
2022/11/04 07:55:48;;;;;;;8.80;3.75;;;;;;;1.49;63.77;99549.59;4888722;28;20080;-65
2022/11/04 07:58:32;;;;;;;7.32;3.50;;;;;;;1.48;63.89;99553.03;4887434;28;20041;-65
2022/11/04 08:01:13;;;;;;;5.68;3.13;;;;;;;1.37;63.62;99549.47;4908434;28;20178;-66
2022/11/04 08:03:51;;;;;;;7.80;3.67;;;;;;;1.39;63.59;99552.94;4850651;28;20112;-66
2022/11/04 08:06:56;;;;;;;5.30;3.25;;;;;;;1.38;64.24;99556.38;4891156;28;20065;-65
2022/11/04 08:12:48;;;;;;;17.92;8.93;;;;;;;1.47;64.64;99566.72;4869589;28;20073;-65
2022/11/04 08:15:29;;;;;;;15.15;7.63;;;;;;;1.46;63.95;99572.75;4910577;28;20045;-66
2022/11/04 08:18:23;;;;;;;14.35;6.07;;;;;;;1.46;63.96;99570.16;4887858;28;20205;-65
2022/11/04 08:21:26;;;;;;;14.98;7.15;;;;;;;1.42;63.61;99578.69;4887289;28;20317;-63
2022/11/04 08:24:50;;;;;;;10.35;4.93;;;;;;;1.40;63.70;99572.66;4899386;28;20055;-65
2022/11/04 08:27:38;;;;;;;8.93;4.30;;;;;;;1.36;64.67;99576.09;4901335;28;20071;-65
2022/11/04 08:30:20;;;;;;;13.07;4.22;;;;;;;1.31;64.48;99572.59;4877965;28;20045;-65
2022/11/04 08:33:06;;;;;;;10.18;4.60;;;;;;;1.41;64.63;99574.41;4891978;28;20041;-65
2022/11/04 08:35:58;;;;;;;6.57;3.50;;;;;;;1.38;64.07;99575.25;4883906;28;20046;-65
2022/11/04 08:38:55;;;;;;;9.30;3.17;;;;;;;1.35;64.43;99571.75;4886553;28;20441;-64
2022/11/04 08:41:44;;;;;;;7.57;4.40;;;;;;;1.18;64.24;99557.03;4870034;28;20143;-64
2022/11/04 08:44:44;;;;;;;13.73;4.97;;;;;;;1.34;64.11;99576.06;4891029;28;20490;-65
2022/11/04 08:47:24;;;;;;;11.48;5.45;;;;;;;1.06;63.94;99542.31;4903485;28;20051;-66
2022/11/04 08:50:26;;;;;;;26.30;10.60;;;;;;;1.33;64.95;99584.63;4897992;28;20180;-65
2022/11/04 08:53:06;;;;;;;23.77;10.00;;;;;;;1.31;64.36;99593.19;4862366;28;20261;-65
2022/11/04 08:56:03;;;;;;;20.48;9.23;;;;;;;1.26;64.33;99593.13;4858259;28;20097;-65
2022/11/04 08:58:52;;;;;;;12.52;6.13;;;;;;;1.35;64.22;99597.50;4868868;28;20055;-65
2022/11/04 09:01:42;;;;;;;11.13;4.90;;;;;;;1.21;64.73;99584.50;4918514;28;20117;-65
2022/11/04 09:04:32;;;;;;;10.13;4.65;;;;;;;1.26;64.85;99588.00;4903642;28;20057;-65
2022/11/04 09:10:13;;;;;;;11.75;3.88;;;;;;;1.25;64.79;99602.56;4890069;28;20049;-64
2022/11/04 09:12:50;;;;;;;9.00;4.03;;;;;;;1.25;65.21;99602.56;4853642;28;20041;-65
2022/11/04 09:15:48;;;;;;;7.57;3.70;;;;;;;1.21;64.67;99608.53;4888253;28;20045;-64
2022/11/04 09:19:08;;;;;;;8.93;4.00;;;;;;;1.19;64.62;99610.22;4917425;28;20068;-64
2022/11/04 09:22:02;;;;;;;6.85;3.92;;;;;;;1.13;65.14;99607.59;4929918;28;20054;-64
2022/11/04 09:24:42;;;;;;;8.60;4.10;;;;;;;1.14;65.21;99618.75;4901699;28;20121;-64
2022/11/04 09:27:42;;;;;;;11.27;3.83;;;;;;;1.15;65.35;99610.16;4895540;28;20053;-65
2022/11/04 09:30:32;;;;;;;12.18;5.00;;;;;;;1.00;65.45;99590.25;4882887;28;20061;-64
2022/11/04 09:33:09;;;;;;;13.50;4.45;;;;;;;1.14;65.57;99617.03;4887256;28;20050;-65
2022/11/04 09:36:03;;;;;;;8.57;4.05;;;;;;;1.11;65.23;99619.56;4861811;28;20054;-65
2022/11/04 09:38:58;;;;;;;7.38;4.07;;;;;;;1.07;65.87;99617.78;4925058;28;20052;-65
2022/11/04 09:42:13;;;;;;;10.52;4.95;;;;;;;1.05;65.58;99609.22;4890254;28;20053;-65
2022/11/04 09:45:12;;;;;;;12.32;5.45;;;;;;;1.00;65.40;99622.03;4890379;28;20171;-64
2022/11/04 09:48:07;;;;;;;8.90;4.20;;;;;;;0.79;65.69;99581.47;4902190;28;20045;-64
2022/11/04 09:51:01;;;;;;;8.70;3.88;;;;;;;1.05;65.37;99629.81;4887095;28;20059;-65
2022/11/04 09:54:12;;;;;;;9.60;4.05;;;;;;;0.95;64.88;99622.78;4915716;28;20041;-65
2022/11/04 09:56:58;;;;;;;8.52;4.10;;;;;;;0.57;64.88;99558.91;4959084;28;20464;-63
2022/11/04 09:59:55;;;;;;;8.90;4.47;;;;;;;0.95;65.20;99622.78;4896207;28;20056;-65
2022/11/04 10:03:05;;;;;;;8.07;4.43;;;;;;;0.61;65.13;99550.38;4913915;28;20061;-64
2022/11/04 10:06:17;;;;;;;10.10;5.93;;;;;;;1.14;64.62;99634.19;4922461;28;20069;-65
2022/11/04 10:09:29;;;;;;;13.85;5.40;;;;;;;1.20;64.58;99635.13;4903131;28;20374;-66
2022/11/04 10:12:25;;;;;;;12.98;4.50;;;;;;;1.27;64.32;99642.06;4863440;28;20061;-65
2022/11/04 10:15:33;;;;;;;16.52;5.93;;;;;;;1.23;64.41;99619.72;4893667;28;20042;-64
2022/11/04 10:22:01;;;;;;;10.07;5.20;;;;;;;1.57;63.42;99639.78;4878853;28;20061;-65
2022/11/04 10:24:59;;;;;;;9.48;4.95;;;;;;;1.54;62.76;99639.75;4888085;28;20045;-64
2022/11/04 10:27:50;;;;;;;11.30;5.68;;;;;;;1.54;62.86;99645.75;4896213;28;20052;-65
2022/11/04 10:30:47;;;;;;;12.57;5.30;;;;;;;1.59;62.76;99646.66;4884180;28;20042;-65
2022/11/04 10:33:33;;;;;;;8.82;4.43;;;;;;;0.89;62.75;99519.84;4851033;28;20037;-65
2022/11/04 10:36:12;;;;;;;5.63;3.28;;;;;;;1.50;61.47;99659.47;4926241;28;20050;-65
2022/11/04 10:38:51;;;;;;;7.55;3.53;;;;;;;1.27;61.15;99606.03;4897032;28;20122;-64
2022/11/04 10:41:52;;;;;;;8.75;3.70;;;;;;;1.49;60.26;99647.44;4890218;28;20081;-66
2022/11/04 10:47:42;;;;;;;10.50;4.13;;;;;;;1.45;60.88;99666.28;4881224;28;20370;-65
2022/11/04 10:50:39;;;;;;;11.88;5.43;;;;;;;1.43;61.42;99673.13;4846999;28;20050;-64
2022/11/04 10:53:32;;;;;;;19.85;5.22;;;;;;;1.34;62.86;99673.00;4909113;28;20240;-64
2022/11/04 10:56:19;;;;;;;16.88;6.47;;;;;;;1.26;63.25;99671.22;4924404;28;20321;-64
2022/11/04 10:59:16;;;;;;;11.57;4.65;;;;;;;1.13;64.35;99674.50;4878056;28;20064;-65
2022/11/04 11:02:08;;;;;;;7.32;3.97;;;;;;;1.10;65.50;99674.47;4876605;28;20075;-64
2022/11/04 11:04:43;;;;;;;8.07;4.05;;;;;;;1.08;65.84;99681.28;4896332;28;20049;-65
2022/11/04 11:07:21;;;;;;;8.63;4.47;;;;;;;1.03;66.09;99683.81;4877166;28;20041;-65
2022/11/04 11:10:04;;;;;;;7.72;3.80;;;;;;;1.03;66.59;99688.94;4895029;28;20050;-65
2022/11/04 11:15:48;;;;;;;11.88;4.57;;;;;;;0.99;66.52;99692.31;4891561;28;20047;-64
2022/11/04 11:18:27;;;;;;;9.85;4.55;;;;;;;0.96;66.79;99691.41;4903656;28;20370;-64
2022/11/04 11:21:27;;;;;;;10.20;4.95;;;;;;;0.89;66.86;99689.59;4892903;28;20060;-65
2022/11/04 11:24:46;;;;;;;10.18;4.90;;;;;;;0.88;66.89;99695.59;4890252;28;20037;-64
2022/11/04 11:27:34;;;;;;;11.15;4.78;;;;;;;0.91;66.73;99703.34;4840425;28;20171;-65
2022/11/04 11:33:30;;;;;;;10.68;5.38;;;;;;;0.91;66.58;99698.22;4747479;28;20055;-64
2022/11/04 11:36:18;;;;;;;10.02;4.72;;;;;;;0.92;66.87;99705.06;4807383;28;20054;-64
2022/11/04 11:39:18;;;;;;;12.35;5.93;;;;;;;0.82;66.69;99699.81;4856890;28;20117;-64
2022/11/04 11:42:05;;;;;;;13.77;6.90;;;;;;;0.84;66.67;99713.53;4807589;28;20039;-64
2022/11/04 11:44:43;;;;;;;9.02;4.07;;;;;;;0.88;66.87;99711.91;4829468;28;20069;-64
2022/11/04 11:47:41;;;;;;;12.38;4.55;;;;;;;0.79;66.21;99684.31;4778526;28;20042;-64
2022/11/04 11:50:33;;;;;;;13.32;5.90;;;;;;;0.83;66.31;99701.53;4826313;28;20204;-64
2022/11/04 11:53:33;;;;;;;10.07;4.70;;;;;;;0.95;66.33;99717.97;4809819;28;20055;-64
2022/11/04 11:56:24;;;;;;;9.43;3.90;;;;;;;1.08;65.77;99720.75;4839667;28;20092;-65
2022/11/04 11:59:34;;;;;;;7.75;4.03;;;;;;;1.12;65.52;99719.06;4824085;28;20057;-65
2022/11/04 12:02:44;;;;;;;25.42;9.85;;;;;;;1.05;65.32;99722.44;4817216;28;20060;-64
2022/11/04 12:05:50;;;;;;;12.85;6.22;;;;;;;0.94;65.04;99695.69;4892869;28;20064;-65
2022/11/04 12:09:25;;;;;;;17.08;7.80;;;;;;;1.15;65.35;99729.41;4896887;28;20049;-65
2022/11/04 12:12:37;;;;;;;9.70;4.07;;;;;;;1.22;65.15;99740.63;4905849;28;20059;-65
2022/11/04 12:19:06;;;;;;;7.22;4.25;;;;;;;1.29;65.22;99737.31;4884259;28;20065;-65
2022/11/04 12:21:48;;;;;;;9.85;4.03;;;;;;;1.25;64.31;99741.56;4893593;28;20097;-65
2022/11/04 12:24:52;;;;;;;11.18;5.75;;;;;;;1.22;64.61;99741.53;4865768;28;20103;-65
2022/11/04 12:27:51;;;;;;;15.00;5.38;;;;;;;1.06;64.56;99719.00;4865062;28;20047;-64
2022/11/04 12:30:36;;;;;;;11.93;5.40;;;;;;;1.11;64.27;99743.06;4864659;28;20376;-65
2022/11/04 12:33:30;;;;;;;13.18;4.93;;;;;;;0.43;64.14;99634.13;4833505;28;20045;-65
2022/11/04 12:36:26;;;;;;;15.50;5.65;;;;;;;1.01;64.27;99733.50;4886736;28;20072;-65
2022/11/04 12:39:42;;;;;;;12.13;5.35;;;;;;;1.03;64.12;99749.84;4873209;28;20067;-65
2022/11/04 12:48:55;;;;;;;9.95;5.28;;;;;;;0.72;64.95;99757.09;4902093;28;20048;-63
2022/11/04 12:51:58;;;;;;;9.73;4.60;;;;;;;0.79;64.46;99751.19;4922500;28;20341;-64
2022/11/04 12:55:06;;;;;;;10.23;4.95;;;;;;;1.02;62.40;99758.38;4880773;28;20112;-65
2022/11/04 12:57:49;;;;;;;9.70;4.30;;;;;;;1.02;62.43;99753.22;4890019;28;20065;-65
2022/11/04 13:00:48;;;;;;;12.38;4.45;;;;;;;0.96;61.40;99730.88;4921054;28;20056;-64
2022/11/04 13:03:55;;;;;;;11.25;3.72;;;;;;;1.17;61.43;99753.44;4921082;28;20111;-63
2022/11/04 13:06:49;;;;;;;8.13;4.40;;;;;;;1.17;61.59;99756.00;4920453;28;20096;-63
2022/11/04 13:09:52;;;;;;;6.72;3.92;;;;;;;1.24;61.24;99755.25;4902035;28;20131;-63
2022/11/04 13:12:49;;;;;;;9.20;4.28;;;;;;;1.31;60.87;99760.50;4865016;28;20082;-64
2022/11/04 13:18:32;;;;;;;10.30;3.92;;;;;;;1.41;59.25;99739.16;4891612;28;20080;-64
2022/11/04 13:21:15;;;;;;;11.00;4.38;;;;;;;1.51;60.49;99743.59;4890238;28;20045;-63
2022/11/04 13:24:19;;;;;;;8.77;3.70;;;;;;;1.62;59.17;99757.47;4892558;28;20049;-64
2022/11/04 13:27:24;;;;;;;8.52;3.83;;;;;;;1.69;59.34;99748.94;4916879;28;20120;-64
2022/11/04 13:30:16;;;;;;;13.70;3.90;;;;;;;0.97;60.06;99621.97;4886544;28;20053;-64
2022/11/04 13:33:02;;;;;;;14.02;4.38;;;;;;;1.71;59.59;99752.41;4823690;28;20069;-64
2022/11/04 13:35:56;;;;;;;10.65;5.05;;;;;;;1.65;59.90;99742.03;4907774;28;20078;-64
2022/11/04 13:38:45;;;;;;;7.57;3.78;;;;;;;1.59;58.52;99741.94;4918733;28;20072;-64
2022/11/04 13:41:53;;;;;;;9.13;4.10;;;;;;;1.63;57.91;99743.72;4864347;28;20279;-64
2022/11/04 13:44:41;;;;;;;12.45;4.28;;;;;;;1.60;58.99;99747.97;4883641;28;20049;-65
2022/11/04 13:47:37;;;;;;;9.85;3.95;;;;;;;1.53;58.31;99747.03;4878888;28;20072;-64
2022/11/04 13:50:39;;;;;;;8.55;4.55;;;;;;;1.54;60.15;99753.06;4899473;28;20052;-65
2022/11/04 13:53:43;;;;;;;7.93;3.72;;;;;;;1.45;60.31;99743.53;4908726;28;20108;-64
2022/11/04 13:56:42;;;;;;;8.15;4.07;;;;;;;1.44;58.41;99734.06;4863992;28;20056;-63
2022/11/04 13:59:41;;;;;;;11.55;4.32;;;;;;;1.38;56.98;99736.56;4899876;28;20060;-65
2022/11/04 14:02:47;;;;;;;20.40;4.35;;;;;;;1.42;58.03;99753.75;4853475;28;20153;-64
2022/11/04 14:06:06;;;;;;;8.63;4.30;;;;;;;1.42;58.09;99748.59;4877634;28;20956;-64
2022/11/04 14:09:24;;;;;;;14.80;4.20;;;;;;;1.28;58.37;99754.47;4890664;28;20061;-65
2022/11/04 14:19:57;;;;;;;10.70;4.20;;;;;;;1.14;59.55;99750.81;4765517;29;21399;-64
2022/11/04 14:23:23;;;;;;;7.53;4.00;;;;;;;1.06;58.77;99755.88;4804875;29;20056;-63
2022/11/04 14:26:20;;;;;;;7.78;3.60;;;;;;;1.04;59.46;99764.41;4760216;29;20063;-64
2022/11/04 14:29:19;;;;;;;8.98;4.03;;;;;;;0.94;60.02;99760.84;4743907;29;20108;-63
2022/11/04 14:31:59;;;;;;;10.20;4.25;;;;;;;0.90;60.04;99773.63;4747793;29;20047;-64
2022/11/04 14:34:52;;;;;;;8.45;4.10;;;;;;;0.86;61.10;99773.59;4799367;29;20091;-63
2022/11/04 14:40:57;;;;;;;9.93;4.20;;;;;;;0.75;60.26;99774.25;4782349;29;20064;-64
2022/11/04 14:43:54;;;;;;;9.88;4.40;;;;;;;0.60;59.83;99754.31;4784867;29;20040;-64
2022/11/04 14:49:50;;;;;;;;;;;;;;;0.68;61.53;99783.63;4763218;29;20044;-63
2022/11/04 14:52:55;;;;;;;10.90;3.70;;;;;;;0.50;60.52;99780.72;4804893;29;21189;-64
2022/11/04 14:55:47;;;;;;;10.93;3.67;;;;;;;0.54;61.67;99785.09;4773523;28;20044;-64
2022/11/04 14:58:32;;;;;;;7.90;3.63;;;;;;;0.50;61.31;99785.88;4829543;28;20457;-63
2022/11/04 15:01:10;;;;;;;9.02;4.03;;;;;;;0.56;61.56;99788.56;4776841;29;20078;-64
2022/11/04 15:03:51;;;;;;;8.20;4.40;;;;;;;0.57;61.29;99786.00;4828750;28;20169;-63
2022/11/04 15:07:01;;;;;;;5.80;3.63;;;;;;;0.52;61.17;99790.19;4792444;28;20089;-64
2022/11/04 15:12:55;;;;;;;10.20;3.78;;;;;;;0.66;60.70;99782.72;4825546;28;20547;-64
2022/11/04 15:15:38;;;;;;;10.10;3.90;;;;;;;0.66;60.20;99787.00;4810247;28;20055;-63
2022/11/04 15:18:16;;;;;;;9.07;3.88;;;;;;;0.52;59.33;99776.47;4800461;28;20047;-64
2022/11/04 15:21:12;;;;;;;10.65;3.85;;;;;;;0.58;58.94;99781.75;4830709;28;20047;-63
2022/11/04 15:27:03;;;;;;;7.22;3.00;;;;;;;0.69;60.44;99794.75;4826162;28;20054;-64
2022/11/04 15:29:56;;;;;;;7.57;3.38;;;;;;;0.78;59.97;99806.06;4830487;28;20077;-64
2022/11/04 15:32:59;;;;;;;5.97;3.25;;;;;;;0.83;60.86;99804.41;4805401;28;20496;-63
2022/11/04 15:38:56;;;;;;;5.82;3.45;;;;;;;0.91;59.41;99811.41;4822672;28;20054;-64